createdAt,value
2022-11-10T00:01:14.887Z,6.19
2022-11-10T00:03:42.031Z,6.35
2022-11-10T00:06:12.149Z,6.31
2022-11-10T00:08:40.209Z,6.32
2022-11-10T00:11:10.415Z,6.06
2022-11-10T00:14:01.706Z,6.20
2022-11-10T00:16:48.091Z,6.16
2022-11-10T00:19:23.740Z,6.23
2022-11-10T00:21:50.907Z,6.43
2022-11-10T00:24:17.896Z,6.38
2022-11-10T00:26:46.051Z,6.26
2022-11-10T00:29:14.540Z,6.60
2022-11-10T00:31:44.090Z,6.48
2022-11-10T00:34:17.804Z,6.37
2022-11-10T00:36:46.772Z,6.32
2022-11-10T00:39:14.970Z,6.28
2022-11-10T00:41:42.625Z,6.20
2022-11-10T00:44:11.628Z,6.14
2022-11-10T00:46:44.790Z,6.03
2022-11-10T00:49:19.086Z,6.09
2022-11-10T00:52:02.597Z,6.52
2022-11-10T00:54:35.575Z,6.65
2022-11-10T00:57:02.569Z,6.72
2022-11-10T00:59:29.592Z,6.77
2022-11-10T01:01:56.572Z,6.64
2022-11-10T01:04:25.625Z,6.64
2022-11-10T01:06:53.202Z,6.64
2022-11-10T01:09:23.214Z,6.67
2022-11-10T01:11:56.336Z,6.61
2022-11-10T01:14:40.504Z,6.69
2022-11-10T01:17:08.411Z,6.97
2022-11-10T01:19:38.621Z,6.98
2022-11-10T01:22:06.826Z,6.98
2022-11-10T01:24:33.982Z,6.95
2022-11-10T01:27:00.960Z,6.89
2022-11-10T01:29:31.930Z,6.88
2022-11-10T01:32:05.145Z,6.97
2022-11-10T01:34:39.455Z,6.84
2022-11-10T01:37:17.102Z,6.97
2022-11-10T01:39:47.078Z,6.71
2022-11-10T01:42:15.250Z,6.68
2022-11-10T01:45:35.185Z,6.68
2022-11-10T01:48:06.991Z,6.67
2022-11-10T01:50:40.312Z,6.76
2022-11-10T01:53:25.346Z,6.70
2022-11-10T01:56:04.551Z,6.91
2022-11-10T01:59:10.260Z,6.68
2022-11-10T02:01:37.414Z,6.88
2022-11-10T02:04:17.076Z,6.89
2022-11-10T02:06:49.407Z,6.91
2022-11-10T02:09:22.685Z,6.92
2022-11-10T02:11:53.901Z,6.95
2022-11-10T02:14:54.906Z,7.08
2022-11-10T02:18:06.700Z,7.03
2022-11-10T02:21:23.326Z,7.03
2022-11-10T02:23:54.593Z,7.19
2022-11-10T02:27:22.004Z,7.21
2022-11-10T02:30:03.964Z,7.42
2022-11-10T02:32:33.089Z,7.40
2022-11-10T02:35:05.733Z,7.45
2022-11-10T02:37:48.053Z,7.30
2022-11-10T02:40:15.092Z,7.33
2022-11-10T02:42:52.740Z,7.36
2022-11-10T02:45:20.840Z,7.43
2022-11-10T02:47:47.968Z,7.30
2022-11-10T02:50:15.113Z,7.44
2022-11-10T02:52:42.150Z,7.48
2022-11-10T02:55:10.339Z,7.47
2022-11-10T02:58:02.565Z,7.30
2022-11-10T03:00:29.535Z,7.43
2022-11-10T03:03:05.436Z,7.45
2022-11-10T03:05:33.533Z,7.45
2022-11-10T03:08:03.068Z,7.50
2022-11-10T03:10:32.289Z,7.52
2022-11-10T03:13:06.126Z,7.64
2022-11-10T03:15:35.658Z,7.66
2022-11-10T03:18:05.829Z,7.64
2022-11-10T03:20:33.891Z,7.73
2022-11-10T03:23:06.331Z,7.60
2022-11-10T03:25:37.611Z,7.51
2022-11-10T03:28:11.388Z,7.23
2022-11-10T03:30:40.471Z,7.13
2022-11-10T03:33:14.435Z,7.18
2022-11-10T03:35:41.514Z,7.32
2022-11-10T03:38:36.074Z,7.44
2022-11-10T03:41:20.234Z,7.46
2022-11-10T03:43:49.963Z,7.57
2022-11-10T03:46:19.114Z,7.50
2022-11-10T03:48:52.999Z,7.49
2022-11-10T03:51:24.194Z,7.55
2022-11-10T03:53:56.295Z,7.51
2022-11-10T03:56:35.478Z,7.60
2022-11-10T03:59:03.713Z,7.57
2022-11-10T04:01:30.767Z,7.57
2022-11-10T04:03:58.850Z,7.58
2022-11-10T04:06:44.530Z,7.55
2022-11-10T04:09:11.722Z,7.66
2022-11-10T04:11:57.014Z,7.66
2022-11-10T04:14:48.389Z,7.75
2022-11-10T04:17:22.374Z,7.56
2022-11-10T04:19:55.295Z,7.52
2022-11-10T04:22:42.980Z,7.56
2022-11-10T04:25:10.117Z,7.52
2022-11-10T04:27:39.344Z,7.71
2022-11-10T04:30:09.372Z,7.88
2022-11-10T04:32:45.606Z,7.98
2022-11-10T04:35:14.807Z,8.00
2022-11-10T04:37:42.905Z,8.03
2022-11-10T04:40:11.435Z,8.07
2022-11-10T04:42:40.400Z,8.09
2022-11-10T04:45:08.646Z,8.04
2022-11-10T04:47:36.646Z,8.15
2022-11-10T04:50:13.193Z,8.19
2022-11-10T04:52:42.215Z,8.13
2022-11-10T04:55:44.814Z,8.20
2022-11-10T04:58:12.725Z,8.27
2022-11-10T05:00:52.029Z,8.28
2022-11-10T05:03:56.850Z,8.30
2022-11-10T05:06:54.262Z,8.37
2022-11-10T05:09:36.827Z,8.25
2022-11-10T05:12:39.904Z,8.30
2022-11-10T05:15:31.214Z,8.42
2022-11-10T05:18:17.886Z,8.36
2022-11-10T05:21:42.924Z,8.33
2022-11-10T05:27:31.318Z,8.43
2022-11-10T05:30:00.526Z,8.47
2022-11-10T05:32:37.277Z,8.37
2022-11-10T05:35:05.662Z,8.33
2022-11-10T05:37:33.902Z,8.34
2022-11-10T05:40:01.058Z,8.39
2022-11-10T05:42:28.100Z,8.39
2022-11-10T05:44:55.148Z,8.57
2022-11-10T05:47:36.233Z,8.60
2022-11-10T05:50:07.021Z,8.56
2022-11-10T05:52:58.312Z,8.70
2022-11-10T05:55:45.433Z,8.62
2022-11-10T05:59:07.321Z,8.54
2022-11-10T06:01:34.413Z,8.66
2022-11-10T06:04:25.690Z,8.62
2022-11-10T06:06:52.720Z,8.47
2022-11-10T06:09:41.731Z,8.38
2022-11-10T06:12:19.922Z,8.33
2022-11-10T06:15:03.207Z,8.34
2022-11-10T06:17:30.218Z,8.35
2022-11-10T06:20:11.879Z,8.37
2022-11-10T06:23:23.853Z,8.71
2022-11-10T06:25:57.113Z,8.78
2022-11-10T06:28:34.559Z,8.68
2022-11-10T06:31:25.277Z,8.70
2022-11-10T06:33:59.690Z,8.71
2022-11-10T06:36:42.033Z,8.60
2022-11-10T06:39:25.467Z,8.77
2022-11-10T06:41:54.639Z,8.83
2022-11-10T06:44:21.635Z,8.80
2022-11-10T06:46:54.715Z,8.84
2022-11-10T06:49:28.854Z,8.91
2022-11-10T06:52:11.650Z,8.92
2022-11-10T06:55:10.590Z,8.81
2022-11-10T06:57:47.211Z,8.80
2022-11-10T07:00:17.529Z,8.82
2022-11-10T07:03:06.604Z,8.84
2022-11-10T07:05:36.389Z,8.92
2022-11-10T07:08:16.779Z,8.94
2022-11-10T07:10:53.444Z,8.96
2022-11-10T07:13:24.913Z,8.99
2022-11-10T07:15:57.373Z,9.03
2022-11-10T07:18:29.469Z,9.07
2022-11-10T07:21:02.716Z,9.18
2022-11-10T07:23:36.930Z,9.20
2022-11-10T07:26:13.998Z,9.24
2022-11-10T07:28:43.068Z,9.28
2022-11-10T07:31:16.192Z,9.39
2022-11-10T07:34:08.096Z,9.44
2022-11-10T07:36:38.143Z,9.47
2022-11-10T07:39:19.379Z,9.64
2022-11-10T07:41:55.619Z,9.60
2022-11-10T07:44:24.633Z,9.68
2022-11-10T07:47:41.396Z,9.74
2022-11-10T07:50:34.803Z,9.88
2022-11-10T07:53:11.046Z,9.83
2022-11-10T07:55:58.006Z,9.86
2022-11-10T07:58:25.029Z,9.82
2022-11-10T08:00:52.839Z,9.96
2022-11-10T08:03:22.384Z,9.98
2022-11-10T08:05:57.376Z,10.06
2022-11-10T08:08:30.427Z,9.98
2022-11-10T08:10:59.283Z,10.10
2022-11-10T08:13:27.313Z,10.17
2022-11-10T08:15:59.964Z,10.13
2022-11-10T08:18:35.311Z,10.21
2022-11-10T08:21:06.939Z,10.18
2022-11-10T08:23:41.442Z,10.24
2022-11-10T08:26:09.660Z,10.34
2022-11-10T08:28:48.631Z,10.44
2022-11-10T08:31:17.674Z,10.39
2022-11-10T08:33:45.007Z,10.47
2022-11-10T08:36:12.064Z,10.54
2022-11-10T08:38:39.232Z,10.52
2022-11-10T08:41:11.344Z,10.61
2022-11-10T08:43:39.391Z,10.55
2022-11-10T08:46:07.356Z,10.67
2022-11-10T08:48:36.582Z,10.68
2022-11-10T08:51:14.591Z,10.57
2022-11-10T08:53:45.610Z,10.65
2022-11-10T08:56:12.988Z,10.67
2022-11-10T08:58:50.261Z,10.72
2022-11-10T09:01:20.280Z,10.83
2022-11-10T09:03:50.311Z,10.92
2022-11-10T09:06:23.297Z,10.95
2022-11-10T09:08:50.484Z,11.00
2022-11-10T09:11:17.665Z,11.12
2022-11-10T09:13:46.849Z,11.25
2022-11-10T09:16:14.086Z,11.29
2022-11-10T09:18:41.078Z,11.29
2022-11-10T09:21:12.307Z,11.39
2022-11-10T09:23:41.488Z,11.57
2022-11-10T09:26:12.739Z,11.52
2022-11-10T09:29:05.045Z,11.60
2022-11-10T09:31:31.959Z,11.60
2022-11-10T09:34:00.074Z,11.62
2022-11-10T09:36:29.238Z,11.85
2022-11-10T09:39:08.501Z,11.88
2022-11-10T09:41:40.769Z,12.21
2022-11-10T09:44:47.221Z,12.26
2022-11-10T09:48:01.425Z,12.14
2022-11-10T09:50:36.767Z,12.07
2022-11-10T09:53:10.737Z,11.95
2022-11-10T09:55:51.630Z,11.73
2022-11-10T09:58:24.212Z,11.60
2022-11-10T10:01:09.053Z,11.76
2022-11-10T10:03:40.700Z,12.29
2022-11-10T10:06:19.165Z,13.25
2022-11-10T10:09:27.021Z,14.37
2022-11-10T10:12:26.426Z,14.87
2022-11-10T10:15:26.980Z,15.01
2022-11-10T10:18:31.111Z,15.23
2022-11-10T10:21:31.863Z,15.31
2022-11-10T10:24:13.938Z,15.46
2022-11-10T10:26:52.722Z,16.07
2022-11-10T10:29:46.738Z,16.56
2022-11-10T10:32:20.078Z,16.27
2022-11-10T10:34:48.667Z,16.18
2022-11-10T10:37:32.101Z,15.87
2022-11-10T10:40:00.147Z,16.04
2022-11-10T10:42:38.098Z,16.38
2022-11-10T10:45:50.621Z,16.64
2022-11-10T10:48:29.318Z,16.85
2022-11-10T10:50:56.315Z,16.60
2022-11-10T10:53:25.358Z,17.15
2022-11-10T10:56:17.882Z,16.38
2022-11-10T10:58:59.345Z,16.80
2022-11-10T11:01:34.047Z,16.27
2022-11-10T11:04:06.134Z,15.95
2022-11-10T11:06:35.580Z,15.77
2022-11-10T11:09:18.097Z,16.16
2022-11-10T11:11:47.148Z,16.54
2022-11-10T11:14:27.144Z,16.86
2022-11-10T11:17:18.571Z,16.62
2022-11-10T11:19:45.870Z,17.23
2022-11-10T11:23:04.141Z,17.98
2022-11-10T11:25:38.591Z,17.69
2022-11-10T11:28:14.979Z,16.85
2022-11-10T11:31:16.166Z,15.77
2022-11-10T11:34:22.418Z,15.01
2022-11-10T11:37:05.311Z,14.52
2022-11-10T11:40:05.198Z,14.24
2022-11-10T11:42:59.874Z,13.87
2022-11-10T11:45:36.748Z,13.48
2022-11-10T11:48:25.773Z,15.22
2022-11-10T11:51:12.488Z,16.36
2022-11-10T11:54:37.148Z,17.48
2022-11-10T11:57:34.497Z,19.26
2022-11-10T12:00:14.026Z,20.06
2022-11-10T12:03:06.806Z,19.78
2022-11-10T12:05:52.467Z,19.39
2022-11-10T12:09:01.644Z,19.69
2022-11-10T12:11:45.057Z,17.31
2022-11-10T12:14:44.810Z,17.32
2022-11-10T12:17:35.792Z,16.95
2022-11-10T12:20:26.796Z,15.87
2022-11-10T12:23:34.431Z,15.00
2022-11-10T12:26:08.398Z,14.43
2022-11-10T12:28:42.952Z,14.48
2022-11-10T12:31:26.244Z,14.71
2022-11-10T12:34:22.465Z,14.48
2022-11-10T12:36:52.157Z,14.18
2022-11-10T12:39:42.120Z,14.16
2022-11-10T12:42:18.354Z,14.12
2022-11-10T12:45:00.046Z,14.00
2022-11-10T12:47:44.156Z,14.43
2022-11-10T12:50:27.506Z,14.95
2022-11-10T12:53:26.838Z,14.67
2022-11-10T12:56:00.234Z,14.82
2022-11-10T12:58:29.685Z,14.37
2022-11-10T13:01:02.997Z,13.84
2022-11-10T13:03:37.549Z,13.90
2022-11-10T13:06:07.616Z,13.68
2022-11-10T13:08:47.410Z,13.60
2022-11-10T13:11:14.418Z,13.76
2022-11-10T13:14:08.041Z,14.23
2022-11-10T13:16:41.672Z,14.14
2022-11-10T13:19:39.444Z,13.69
2022-11-10T13:22:10.976Z,13.51
2022-11-10T13:24:43.434Z,13.53
2022-11-10T13:27:32.740Z,13.26
2022-11-10T13:30:01.033Z,13.28
2022-11-10T13:32:34.966Z,13.25
2022-11-10T13:35:44.549Z,13.08
2022-11-10T13:38:39.525Z,12.93
2022-11-10T13:41:20.791Z,13.15
2022-11-10T13:43:55.349Z,12.91
2022-11-10T13:46:34.228Z,12.74
2022-11-10T13:49:27.090Z,12.76
2022-11-10T13:52:22.220Z,12.54
2022-11-10T13:55:24.332Z,12.46
2022-11-10T13:58:07.752Z,12.58
2022-11-10T14:00:36.601Z,12.71
2022-11-10T14:03:06.950Z,12.75
2022-11-10T14:05:38.888Z,12.59
2022-11-10T14:08:25.360Z,12.59
2022-11-10T14:11:00.413Z,12.34
2022-11-10T14:13:39.531Z,12.21
2022-11-10T14:16:26.887Z,12.15
2022-11-10T14:19:33.241Z,12.41
2022-11-10T14:22:07.818Z,12.26
2022-11-10T14:24:53.075Z,12.26
2022-11-10T14:27:28.527Z,12.33
2022-11-10T14:30:11.277Z,12.25
2022-11-10T14:32:40.449Z,12.29
2022-11-10T14:35:18.991Z,12.28
2022-11-10T14:37:57.413Z,12.19
2022-11-10T14:40:24.527Z,12.14
2022-11-10T14:42:53.717Z,12.04
2022-11-10T14:45:29.425Z,12.08
2022-11-10T14:48:04.262Z,12.15
2022-11-10T14:50:36.275Z,12.27
2022-11-10T14:53:12.635Z,11.98
2022-11-10T14:55:44.705Z,11.97
2022-11-10T14:58:46.455Z,11.86
2022-11-10T15:02:00.809Z,11.75
2022-11-10T15:05:26.947Z,11.62
2022-11-10T15:07:56.945Z,11.35
2022-11-10T15:10:27.663Z,11.28
2022-11-10T15:13:06.208Z,10.99
2022-11-10T15:15:34.235Z,10.85
2022-11-10T15:18:23.853Z,10.66
2022-11-10T15:21:19.894Z,10.66
2022-11-10T15:23:59.450Z,10.56
2022-11-10T15:26:30.163Z,10.61
2022-11-10T15:29:02.738Z,10.55
2022-11-10T15:31:33.722Z,10.62
2022-11-10T15:34:06.820Z,10.79
2022-11-10T15:36:39.939Z,10.94
2022-11-10T15:39:14.226Z,10.75
2022-11-10T15:41:46.827Z,10.63
2022-11-10T15:44:32.873Z,10.59
2022-11-10T15:46:59.974Z,10.90
2022-11-10T15:49:31.532Z,10.89
2022-11-10T15:52:06.188Z,10.92
2022-11-10T15:54:36.781Z,10.64
2022-11-10T15:57:14.164Z,10.84
2022-11-10T15:59:42.656Z,10.87
2022-11-10T16:02:20.150Z,10.50
2022-11-10T16:04:49.301Z,10.54
2022-11-10T16:07:18.156Z,10.43
2022-11-10T16:09:45.372Z,10.32
2022-11-10T16:12:22.810Z,10.34
2022-11-10T16:14:53.189Z,10.29
2022-11-10T16:17:23.266Z,10.11
2022-11-10T16:19:50.326Z,10.05
2022-11-10T16:22:19.905Z,9.79
2022-11-10T16:24:47.216Z,9.66
2022-11-10T16:27:17.160Z,9.50
2022-11-10T16:29:44.337Z,9.34
2022-11-10T16:32:12.566Z,9.21
2022-11-10T16:34:42.942Z,8.92
2022-11-10T16:37:12.975Z,8.89
2022-11-10T16:39:41.152Z,8.71
2022-11-10T16:42:10.325Z,8.70
2022-11-10T16:44:42.442Z,8.60
2022-11-10T16:47:20.862Z,8.35
2022-11-10T16:49:53.381Z,8.30
2022-11-10T16:52:21.809Z,8.46
2022-11-10T16:54:48.968Z,8.56
2022-11-10T16:57:18.144Z,8.66
2022-11-10T16:59:46.153Z,8.41
2022-11-10T17:02:26.400Z,8.59
2022-11-10T17:04:55.847Z,8.51
2022-11-10T17:07:26.429Z,8.49
2022-11-10T17:09:57.752Z,8.49
2022-11-10T17:12:24.838Z,8.42
2022-11-10T17:14:52.871Z,8.28
2022-11-10T17:17:26.728Z,8.35
2022-11-10T17:20:06.534Z,8.23
2022-11-10T17:22:36.657Z,8.23
2022-11-10T17:25:05.562Z,8.18
2022-11-10T17:27:37.723Z,8.10
2022-11-10T17:30:05.350Z,8.01
2022-11-10T17:33:03.053Z,8.08
2022-11-10T17:35:25.251Z,8.07
2022-11-10T17:37:55.949Z,8.08
2022-11-10T17:40:25.361Z,8.12
2022-11-10T17:42:54.565Z,8.30
2022-11-10T17:45:31.640Z,8.42
2022-11-10T17:48:23.412Z,8.46
2022-11-10T17:50:53.013Z,8.48
2022-11-10T17:53:29.280Z,8.59
2022-11-10T17:55:57.982Z,8.49
2022-11-10T17:58:26.066Z,8.35
2022-11-10T18:00:56.589Z,8.47
2022-11-10T18:03:25.482Z,8.53
2022-11-10T18:05:55.060Z,8.50
2022-11-10T18:08:22.070Z,8.52
2022-11-10T18:10:53.712Z,8.48
2022-11-10T18:13:27.365Z,8.45
2022-11-10T18:16:07.862Z,8.47
2022-11-10T18:18:37.258Z,8.47
2022-11-10T18:21:06.571Z,8.45
2022-11-10T18:23:34.075Z,8.35
2022-11-10T18:26:09.110Z,8.35
2022-11-10T18:28:43.564Z,8.43
2022-11-10T18:31:13.571Z,8.33
2022-11-10T18:33:41.761Z,8.39
2022-11-10T18:36:09.631Z,8.37
2022-11-10T18:38:38.964Z,8.33
2022-11-10T18:41:25.915Z,8.21
2022-11-10T18:43:55.429Z,8.25
2022-11-10T18:46:30.696Z,8.34
2022-11-10T18:48:58.419Z,8.28
2022-11-10T18:51:27.554Z,8.18
2022-11-10T18:53:59.343Z,8.25
2022-11-10T18:56:28.889Z,8.16
2022-11-10T18:58:58.346Z,8.20
2022-11-10T19:01:42.327Z,8.22
2022-11-10T19:04:18.601Z,8.10
2022-11-10T19:06:49.031Z,8.11
2022-11-10T19:09:16.601Z,7.95
2022-11-10T19:11:45.376Z,7.89
2022-11-10T19:14:14.990Z,7.89
2022-11-10T19:16:44.201Z,7.77
2022-11-10T19:19:12.810Z,7.87
2022-11-10T19:21:40.862Z,7.72
2022-11-10T19:24:28.046Z,7.84
2022-11-10T19:26:56.545Z,7.79
2022-11-10T19:29:24.042Z,7.93
2022-11-10T19:31:51.726Z,7.74
2022-11-10T19:34:22.195Z,7.75
2022-11-10T19:36:54.965Z,7.81
2022-11-10T19:39:23.890Z,7.74
2022-11-10T19:41:52.587Z,7.74
2022-11-10T19:44:20.925Z,7.66
2022-11-10T19:46:47.971Z,7.53
2022-11-10T19:52:23.649Z,7.28
2022-11-10T19:54:52.277Z,7.29
2022-11-10T19:57:19.889Z,7.30
2022-11-10T19:59:49.280Z,7.33
2022-11-10T20:02:19.359Z,7.26
2022-11-10T20:05:09.101Z,7.32
2022-11-10T20:07:55.094Z,7.30
2022-11-10T20:10:24.128Z,7.36
2022-11-10T20:12:51.484Z,7.33
2022-11-10T20:15:18.842Z,7.15
2022-11-10T20:17:46.402Z,7.42
2022-11-10T20:20:14.421Z,7.42
2022-11-10T20:22:41.867Z,7.28
2022-11-10T20:25:09.573Z,7.31
2022-11-10T20:27:36.836Z,7.33
2022-11-10T20:30:05.955Z,7.17
2022-11-10T20:32:42.331Z,7.23
2022-11-10T20:35:18.668Z,7.14
2022-11-10T20:37:45.976Z,7.17
2022-11-10T20:40:42.374Z,7.06
2022-11-10T20:43:02.800Z,7.10
2022-11-10T20:45:39.314Z,7.18
2022-11-10T20:48:16.637Z,7.22
2022-11-10T20:50:44.480Z,7.29
2022-11-10T20:53:12.013Z,7.30
2022-11-10T20:55:58.954Z,7.29
2022-11-10T20:58:26.734Z,7.29
2022-11-10T21:01:04.505Z,7.13
2022-11-10T21:03:38.381Z,7.09
2022-11-10T21:06:08.283Z,7.25
2022-11-10T21:08:37.829Z,7.34
2022-11-10T21:11:47.961Z,7.21
2022-11-10T21:14:44.759Z,7.21
2022-11-10T21:17:18.680Z,7.23
2022-11-10T21:19:55.430Z,7.05
2022-11-10T21:22:28.783Z,7.12
2022-11-10T21:24:57.968Z,7.14
2022-11-10T21:27:29.110Z,7.20
2022-11-10T21:29:58.959Z,6.99
2022-11-10T21:32:33.459Z,6.88
2022-11-10T21:35:07.344Z,6.84
2022-11-10T21:37:35.462Z,6.75
2022-11-10T21:40:02.519Z,6.67
2022-11-10T21:42:35.847Z,6.58
2022-11-10T21:45:04.269Z,6.48
2022-11-10T21:47:31.240Z,6.45
2022-11-10T21:50:06.020Z,6.45
2022-11-10T21:52:43.215Z,6.42
2022-11-10T21:55:10.988Z,6.33
2022-11-10T21:57:58.227Z,6.28
2022-11-10T22:00:26.279Z,6.04
2022-11-10T22:02:58.773Z,5.95
2022-11-10T22:05:28.651Z,6.11
2022-11-10T22:07:56.754Z,6.24
2022-11-10T22:10:47.343Z,6.33
2022-11-10T22:13:44.732Z,6.16
2022-11-10T22:17:02.547Z,6.08
2022-11-10T22:19:29.822Z,6.02
2022-11-10T22:22:03.994Z,6.02
2022-11-10T22:24:37.377Z,5.96
2022-11-10T22:27:13.682Z,6.03
2022-11-10T22:29:40.792Z,5.99
2022-11-10T22:32:10.001Z,6.04
2022-11-10T22:34:38.175Z,5.99
2022-11-10T22:37:14.243Z,5.99
2022-11-10T22:40:05.779Z,6.06
2022-11-10T22:43:00.240Z,6.02
2022-11-10T22:45:35.304Z,6.05
2022-11-10T22:48:27.008Z,6.10
2022-11-10T22:50:57.695Z,6.06
2022-11-10T22:53:39.027Z,5.88
2022-11-10T22:56:06.309Z,6.03
2022-11-10T22:58:34.390Z,5.96
2022-11-10T23:01:09.505Z,6.11
2022-11-10T23:03:38.906Z,6.12
2022-11-10T23:06:09.123Z,6.24
2022-11-10T23:08:38.321Z,6.21
2022-11-10T23:11:12.801Z,6.15
2022-11-10T23:13:44.022Z,5.88
2022-11-10T23:16:14.882Z,5.68
2022-11-10T23:18:45.467Z,5.55
2022-11-10T23:21:15.412Z,5.49
2022-11-10T23:23:49.401Z,5.36
2022-11-10T23:26:23.388Z,5.15
2022-11-10T23:28:53.661Z,5.06
2022-11-10T23:31:23.596Z,4.99
2022-11-10T23:33:55.745Z,5.04
2022-11-10T23:36:25.061Z,5.09
2022-11-10T23:38:58.532Z,4.94
2022-11-10T23:41:31.819Z,5.24
2022-11-10T23:44:08.823Z,5.53
2022-11-10T23:46:40.882Z,5.52
2022-11-10T23:49:07.910Z,5.31
2022-11-10T23:51:37.117Z,5.22
2022-11-10T23:54:13.348Z,5.01
2022-11-10T23:56:46.332Z,4.79
2022-11-10T23:59:20.330Z,4.61
